createdAt,value
2023-02-15T00:00:06.517Z,6.47
2023-02-15T00:02:33.906Z,7.00
2023-02-15T00:05:02.618Z,6.82
2023-02-15T00:07:30.003Z,6.93
2023-02-15T00:09:57.391Z,7.85
2023-02-15T00:12:24.754Z,7.65
2023-02-15T00:14:52.163Z,6.95
2023-02-15T00:17:19.559Z,6.25
2023-02-15T00:19:46.960Z,7.78
2023-02-15T00:22:15.679Z,7.15
2023-02-15T00:24:43.058Z,6.45
2023-02-15T00:27:10.960Z,7.60
2023-02-15T00:29:38.437Z,6.15
2023-02-15T00:32:05.823Z,6.57
2023-02-15T00:34:33.265Z,6.13
2023-02-15T00:37:00.702Z,7.18
2023-02-15T00:39:29.891Z,7.20
2023-02-15T00:41:57.336Z,6.47
2023-02-15T00:44:24.722Z,8.35
2023-02-15T00:46:52.164Z,6.03
2023-02-15T00:49:19.548Z,6.10
2023-02-15T00:51:46.943Z,7.35
2023-02-15T00:54:14.325Z,6.15
2023-02-15T00:56:43.029Z,6.72
2023-02-15T00:59:10.566Z,6.30
2023-02-15T01:01:38.037Z,6.50
2023-02-15T01:04:05.814Z,6.45
2023-02-15T01:06:33.420Z,6.60
2023-02-15T01:09:00.833Z,5.97
2023-02-15T01:11:28.230Z,6.07
2023-02-15T01:13:57.594Z,6.20
2023-02-15T01:16:25.474Z,6.55
2023-02-15T01:18:53.365Z,6.95
2023-02-15T01:21:21.641Z,6.15
2023-02-15T01:23:49.207Z,6.78
2023-02-15T01:26:16.668Z,6.75
2023-02-15T01:28:44.178Z,6.68
2023-02-15T01:31:15.646Z,6.03
2023-02-15T01:33:43.216Z,6.55
2023-02-15T01:36:10.902Z,6.55
2023-02-15T01:38:38.353Z,7.60
2023-02-15T01:41:27.521Z,6.68
2023-02-15T01:43:56.256Z,5.95
2023-02-15T01:46:29.564Z,6.20
2023-02-15T01:48:59.082Z,7.47
2023-02-15T01:51:26.553Z,7.28
2023-02-15T01:53:55.479Z,7.20
2023-02-15T01:56:24.205Z,6.68
2023-02-15T01:58:51.812Z,6.43
2023-02-15T02:01:19.268Z,6.25
2023-02-15T02:03:51.655Z,6.35
2023-02-15T02:06:19.258Z,6.50
2023-02-15T02:08:47.558Z,8.73
2023-02-15T02:11:15.459Z,8.40
2023-02-15T02:13:43.273Z,6.72
2023-02-15T02:16:12.660Z,6.90
2023-02-15T02:18:46.447Z,6.82
2023-02-15T02:21:38.055Z,7.13
2023-02-15T02:24:16.635Z,7.78
2023-02-15T02:26:54.355Z,6.80
2023-02-15T02:29:37.986Z,7.00
2023-02-15T02:32:27.915Z,7.20
2023-02-15T02:34:58.269Z,7.55
2023-02-15T02:37:27.474Z,7.30
2023-02-15T02:39:57.608Z,6.60
2023-02-15T02:44:55.384Z,7.00
2023-02-15T02:47:24.912Z,7.13
2023-02-15T02:49:54.012Z,7.32
2023-02-15T02:52:40.426Z,8.07
2023-02-15T02:55:10.882Z,6.80
2023-02-15T02:57:38.872Z,8.32
2023-02-15T03:00:09.430Z,7.57
2023-02-15T03:02:37.991Z,7.07
2023-02-15T03:05:07.718Z,8.00
2023-02-15T03:07:35.096Z,7.68
2023-02-15T03:10:05.229Z,7.25
2023-02-15T03:15:03.149Z,6.82
2023-02-15T03:17:31.883Z,7.47
2023-02-15T03:20:01.364Z,7.43
2023-02-15T03:22:30.761Z,7.63
2023-02-15T03:25:01.249Z,7.10
2023-02-15T03:27:33.359Z,7.63
2023-02-15T03:30:00.963Z,7.35
2023-02-15T03:32:29.853Z,7.10
2023-02-15T03:34:57.273Z,6.97
2023-02-15T03:37:27.409Z,7.18
2023-02-15T03:42:26.257Z,6.60
2023-02-15T03:44:56.759Z,7.93
2023-02-15T03:47:25.970Z,7.45
2023-02-15T03:49:55.433Z,7.95
2023-02-15T03:52:22.194Z,7.35
2023-02-15T03:54:49.592Z,7.15
2023-02-15T03:57:37.196Z,6.65
2023-02-15T04:00:25.610Z,7.53
2023-02-15T04:03:07.625Z,7.05
2023-02-15T04:05:35.043Z,7.55
2023-02-15T04:08:02.444Z,6.85
2023-02-15T04:10:47.204Z,7.03
2023-02-15T04:13:14.616Z,6.68
2023-02-15T04:16:01.683Z,6.32
2023-02-15T04:18:47.041Z,6.43
2023-02-15T04:21:31.852Z,6.70
2023-02-15T04:24:16.803Z,6.40
2023-02-15T04:26:44.200Z,6.90
2023-02-15T04:29:11.601Z,6.30
2023-02-15T04:31:40.368Z,5.70
2023-02-15T04:34:07.800Z,6.90
2023-02-15T04:36:35.202Z,6.35
2023-02-15T04:39:02.609Z,6.35
2023-02-15T04:41:30.022Z,6.10
2023-02-15T04:43:58.210Z,6.30
2023-02-15T04:46:25.608Z,6.20
2023-02-15T04:48:54.347Z,6.20
2023-02-15T04:51:21.748Z,6.07
2023-02-15T04:53:49.393Z,6.03
2023-02-15T04:56:16.799Z,6.57
2023-02-15T04:58:44.195Z,6.07
2023-02-15T05:01:11.694Z,6.07
2023-02-15T05:03:39.145Z,6.00
2023-02-15T05:06:07.857Z,6.25
2023-02-15T05:08:35.268Z,6.22
2023-02-15T05:11:02.664Z,6.00
2023-02-15T05:13:30.059Z,5.82
2023-02-15T05:15:57.470Z,5.75
2023-02-15T05:18:24.967Z,6.13
2023-02-15T05:20:52.346Z,6.57
2023-02-15T05:23:21.109Z,6.18
2023-02-15T05:26:06.897Z,6.05
2023-02-15T05:28:34.357Z,5.85
2023-02-15T05:31:05.746Z,6.30
2023-02-15T05:33:33.466Z,5.90
2023-02-15T05:36:02.236Z,5.85
2023-02-15T05:38:31.488Z,6.15
2023-02-15T05:40:58.887Z,6.40
2023-02-15T05:43:26.367Z,6.00
2023-02-15T05:45:54.475Z,5.88
2023-02-15T05:48:23.436Z,5.85
2023-02-15T05:50:58.849Z,6.35
2023-02-15T05:53:26.261Z,6.30
2023-02-15T05:55:59.936Z,4.97
2023-02-15T05:58:28.575Z,4.88
2023-02-15T06:00:56.385Z,5.63
2023-02-15T06:03:24.215Z,5.10
2023-02-15T06:05:51.689Z,5.55
2023-02-15T06:08:19.208Z,5.90
2023-02-15T06:10:47.331Z,6.28
2023-02-15T06:13:16.114Z,5.68
2023-02-15T06:15:43.732Z,5.30
2023-02-15T06:18:11.190Z,5.65
2023-02-15T06:20:38.569Z,5.63
2023-02-15T06:23:05.984Z,4.80
2023-02-15T06:25:35.781Z,5.22
2023-02-15T06:30:32.270Z,5.20
2023-02-15T06:32:59.734Z,4.97
2023-02-15T06:35:27.139Z,5.15
2023-02-15T06:37:54.520Z,5.63
2023-02-15T06:40:21.893Z,4.80
2023-02-15T06:42:49.428Z,5.40
2023-02-15T06:45:16.944Z,5.18
2023-02-15T06:47:45.673Z,4.53
2023-02-15T06:50:13.265Z,5.85
2023-02-15T06:52:40.636Z,7.70
2023-02-15T06:55:08.319Z,4.10
2023-02-15T06:57:35.771Z,4.90
2023-02-15T07:00:05.640Z,5.22
2023-02-15T07:02:33.116Z,5.20
2023-02-15T07:05:01.922Z,4.97
2023-02-15T07:07:29.335Z,4.93
2023-02-15T07:09:56.786Z,4.82
2023-02-15T07:12:41.991Z,5.10
2023-02-15T07:15:10.064Z,5.05
2023-02-15T07:17:37.573Z,4.45
2023-02-15T07:20:08.594Z,5.38
2023-02-15T07:22:37.069Z,5.85
2023-02-15T07:25:04.604Z,6.15
2023-02-15T07:27:32.419Z,5.03
2023-02-15T07:29:59.824Z,5.53
2023-02-15T07:32:29.568Z,5.57
2023-02-15T07:37:22.069Z,5.85
2023-02-15T07:39:49.456Z,6.15
2023-02-15T07:42:16.864Z,11.05
2023-02-15T07:44:44.230Z,11.73
2023-02-15T07:47:12.273Z,11.07
2023-02-15T07:49:40.049Z,17.00
2023-02-15T07:52:07.487Z,8.35
2023-02-15T07:54:36.233Z,12.70
2023-02-15T07:57:03.747Z,11.63
2023-02-15T07:59:31.148Z,9.85
2023-02-15T08:01:58.558Z,13.73
2023-02-15T08:04:26.015Z,10.77
2023-02-15T08:06:54.152Z,11.15
2023-02-15T08:09:21.892Z,8.88
2023-02-15T08:11:50.766Z,8.48
2023-02-15T08:14:18.669Z,6.80
2023-02-15T08:16:46.783Z,10.18
2023-02-15T08:19:15.261Z,6.72
2023-02-15T08:21:43.867Z,6.93
2023-02-15T08:24:12.199Z,9.13
2023-02-15T08:26:42.232Z,7.00
2023-02-15T08:29:11.250Z,9.10
2023-02-15T08:31:39.019Z,7.32
2023-02-15T08:34:06.861Z,8.80
2023-02-15T08:36:34.237Z,6.40
2023-02-15T08:39:02.696Z,7.32
2023-02-15T08:41:31.195Z,7.40
2023-02-15T08:43:59.316Z,6.47
2023-02-15T08:46:28.840Z,6.15
2023-02-15T08:48:56.269Z,6.30
2023-02-15T08:51:24.519Z,8.00
2023-02-15T08:53:52.890Z,6.93
2023-02-15T08:56:21.504Z,5.93
2023-02-15T08:58:48.946Z,6.00
2023-02-15T09:01:18.815Z,6.78
2023-02-15T09:03:47.975Z,7.57
2023-02-15T09:06:15.533Z,5.38
2023-02-15T09:08:42.944Z,5.97
2023-02-15T09:11:11.429Z,7.97
2023-02-15T09:13:39.028Z,6.18
2023-02-15T09:16:08.178Z,5.60
2023-02-15T09:18:38.143Z,5.15
2023-02-15T09:21:08.539Z,5.95
2023-02-15T09:23:35.929Z,5.60
2023-02-15T09:26:05.054Z,5.22
2023-02-15T09:28:33.608Z,5.25
2023-02-15T09:31:10.436Z,7.63
2023-02-15T09:33:37.983Z,4.70
2023-02-15T09:36:07.542Z,5.20
2023-02-15T09:38:34.939Z,6.22
2023-02-15T09:41:10.571Z,5.60
2023-02-15T09:43:38.622Z,4.80
2023-02-15T09:46:13.998Z,5.38
2023-02-15T09:48:41.803Z,4.65
2023-02-15T09:51:29.859Z,4.80
2023-02-15T09:54:06.417Z,4.60
2023-02-15T09:56:38.206Z,4.97
2023-02-15T09:59:10.183Z,4.68
2023-02-15T10:01:41.162Z,4.38
2023-02-15T10:04:18.468Z,4.90
2023-02-15T10:06:50.301Z,3.92
2023-02-15T10:09:32.338Z,4.90
2023-02-15T10:12:08.570Z,4.30
2023-02-15T10:14:44.419Z,6.18
2023-02-15T10:17:21.789Z,4.32
2023-02-15T10:19:53.660Z,5.13
2023-02-15T10:22:27.257Z,4.53
2023-02-15T10:25:12.811Z,4.18
2023-02-15T10:27:42.718Z,4.30
2023-02-15T10:30:12.311Z,4.50
2023-02-15T10:32:41.289Z,4.78
2023-02-15T10:35:12.541Z,4.40
2023-02-15T10:37:54.355Z,4.07
2023-02-15T10:40:27.155Z,4.18
2023-02-15T10:43:05.250Z,3.70
2023-02-15T10:45:34.714Z,4.47
2023-02-15T10:48:13.624Z,4.45
2023-02-15T10:50:47.534Z,5.13
2023-02-15T10:53:47.653Z,4.57
2023-02-15T10:56:20.601Z,4.70
2023-02-15T10:59:05.371Z,4.47
2023-02-15T11:01:35.221Z,5.03
2023-02-15T11:04:32.822Z,4.35
2023-02-15T11:07:01.192Z,4.43
2023-02-15T11:09:34.628Z,4.85
2023-02-15T11:12:02.032Z,4.85
2023-02-15T11:14:33.569Z,4.22
2023-02-15T11:17:03.783Z,4.43
2023-02-15T11:22:01.072Z,5.15
2023-02-15T11:24:31.205Z,4.63
2023-02-15T11:29:28.124Z,4.38
2023-02-15T11:31:56.657Z,4.50
2023-02-15T11:34:26.620Z,4.32
2023-02-15T11:36:54.255Z,5.10
2023-02-15T11:39:21.917Z,4.38
2023-02-15T11:41:54.720Z,4.43
2023-02-15T11:44:24.570Z,4.18
2023-02-15T11:46:52.477Z,4.47
2023-02-15T11:49:24.437Z,4.57
2023-02-15T11:51:52.487Z,4.38
2023-02-15T11:54:20.257Z,4.32
2023-02-15T11:56:47.629Z,4.38
2023-02-15T11:59:18.332Z,4.55
2023-02-15T12:01:46.131Z,5.35
2023-02-15T12:04:17.879Z,4.13
2023-02-15T12:06:47.455Z,4.55
2023-02-15T12:09:18.412Z,4.60
2023-02-15T12:11:45.953Z,3.95
2023-02-15T12:14:17.500Z,4.32
2023-02-15T12:16:46.068Z,4.20
2023-02-15T12:19:28.812Z,4.35
2023-02-15T12:21:56.195Z,4.93
2023-02-15T12:24:25.225Z,4.38
2023-02-15T12:27:00.021Z,4.22
2023-02-15T12:29:31.301Z,4.03
2023-02-15T12:31:59.027Z,3.75
2023-02-15T12:34:28.448Z,4.18
2023-02-15T12:36:58.821Z,4.53
2023-02-15T12:39:28.271Z,3.88
2023-02-15T12:42:01.236Z,3.92
2023-02-15T12:44:30.430Z,3.80
2023-02-15T12:46:59.540Z,4.30
2023-02-15T12:49:27.053Z,3.80
2023-02-15T12:51:55.077Z,3.50
2023-02-15T12:54:47.099Z,3.92
2023-02-15T12:57:16.682Z,4.18
2023-02-15T12:59:52.431Z,4.10
2023-02-15T13:02:23.634Z,3.75
2023-02-15T13:04:51.269Z,3.75
2023-02-15T13:07:18.653Z,3.72
2023-02-15T13:09:46.069Z,4.10
2023-02-15T13:12:20.352Z,4.20
2023-02-15T13:14:48.597Z,4.03
2023-02-15T13:17:18.182Z,3.55
2023-02-15T13:19:46.880Z,3.58
2023-02-15T13:22:15.864Z,3.50
2023-02-15T13:24:44.304Z,3.83
2023-02-15T13:27:16.051Z,3.95
2023-02-15T13:29:45.243Z,3.85
2023-02-15T13:32:17.347Z,3.30
2023-02-15T13:34:46.078Z,3.58
2023-02-15T13:37:16.054Z,3.38
2023-02-15T13:39:45.227Z,3.58
2023-02-15T13:42:21.958Z,3.77
2023-02-15T13:44:59.330Z,3.78
2023-02-15T13:47:28.880Z,3.60
2023-02-15T13:50:12.606Z,3.83
2023-02-15T13:52:42.499Z,4.38
2023-02-15T13:55:32.128Z,4.32
2023-02-15T13:58:07.937Z,3.55
2023-02-15T14:00:38.749Z,3.97
2023-02-15T14:03:45.871Z,3.92
2023-02-15T14:06:46.131Z,3.85
2023-02-15T14:11:46.301Z,4.30
2023-02-15T14:14:43.660Z,3.67
2023-02-15T14:17:14.583Z,4.00
2023-02-15T14:19:46.548Z,3.55
2023-02-15T14:22:20.465Z,3.78
2023-02-15T14:24:49.996Z,3.40
2023-02-15T14:27:22.393Z,3.78
2023-02-15T14:29:51.762Z,3.88
2023-02-15T14:32:22.351Z,4.07
2023-02-15T14:34:51.724Z,4.65
2023-02-15T14:37:23.302Z,3.40
2023-02-15T14:40:11.972Z,4.20
2023-02-15T14:42:42.291Z,4.75
2023-02-15T14:45:17.416Z,4.68
2023-02-15T14:47:46.499Z,3.90
2023-02-15T14:50:39.090Z,4.50
2023-02-15T14:53:39.258Z,4.60
2023-02-15T14:58:57.719Z,4.32
2023-02-15T15:01:27.397Z,4.32
2023-02-15T15:03:57.230Z,4.15
2023-02-15T15:06:26.507Z,4.80
2023-02-15T15:08:56.726Z,3.90
2023-02-15T15:14:12.388Z,4.00
2023-02-15T15:16:52.405Z,4.00
2023-02-15T15:20:08.114Z,4.43
2023-02-15T15:22:36.295Z,5.15
2023-02-15T15:25:05.934Z,4.50
2023-02-15T15:27:40.965Z,6.15
2023-02-15T15:30:42.031Z,3.88
2023-02-15T15:33:15.810Z,3.97
2023-02-15T15:35:46.795Z,4.07
2023-02-15T15:38:28.008Z,3.65
2023-02-15T15:41:17.099Z,4.55
2023-02-15T15:44:11.637Z,4.32
2023-02-15T15:47:06.684Z,4.38
2023-02-15T15:49:34.577Z,4.40
2023-02-15T15:52:02.135Z,4.35
2023-02-15T15:54:29.521Z,4.22
2023-02-15T15:56:59.615Z,4.28
2023-02-15T15:59:27.742Z,4.40
2023-02-15T16:01:56.001Z,4.10
2023-02-15T16:04:27.547Z,5.47
2023-02-15T16:06:54.983Z,4.43
2023-02-15T16:09:23.710Z,5.18
2023-02-15T16:11:52.215Z,4.60
2023-02-15T16:14:27.662Z,4.03
2023-02-15T16:16:56.584Z,4.70
2023-02-15T16:19:26.045Z,5.47
2023-02-15T16:21:53.471Z,5.43
2023-02-15T16:24:26.915Z,4.15
2023-02-15T16:27:20.605Z,4.80
2023-02-15T16:29:49.315Z,4.65
2023-02-15T16:32:19.112Z,4.65
2023-02-15T16:34:55.697Z,5.03
2023-02-15T16:37:24.374Z,4.35
2023-02-15T16:39:51.916Z,4.85
2023-02-15T16:42:19.471Z,4.53
2023-02-15T16:44:49.688Z,4.45
2023-02-15T16:47:18.654Z,5.00
2023-02-15T16:49:47.958Z,5.15
2023-02-15T16:52:16.874Z,5.60
2023-02-15T16:54:44.359Z,5.15
2023-02-15T16:57:18.292Z,5.80
2023-02-15T16:59:47.907Z,5.20
2023-02-15T17:02:37.199Z,6.15
2023-02-15T17:05:18.369Z,5.70
2023-02-15T17:07:52.024Z,6.47
2023-02-15T17:10:28.481Z,6.60
2023-02-15T17:12:57.112Z,9.10
2023-02-15T17:15:28.781Z,6.30
2023-02-15T17:17:59.244Z,5.85
2023-02-15T17:20:26.737Z,6.35
2023-02-15T17:22:54.365Z,6.50
2023-02-15T17:25:23.149Z,6.68
2023-02-15T17:27:53.035Z,6.93
2023-02-15T17:30:25.348Z,6.70
2023-02-15T17:32:56.144Z,6.18
2023-02-15T17:35:26.528Z,6.88
2023-02-15T17:38:02.582Z,7.65
2023-02-15T17:40:30.775Z,6.65
2023-02-15T17:42:58.200Z,7.30
2023-02-15T17:45:27.296Z,6.72
2023-02-15T17:47:54.775Z,8.13
2023-02-15T17:50:23.445Z,7.50
2023-02-15T17:52:52.270Z,6.95
2023-02-15T17:55:35.246Z,9.35
2023-02-15T17:58:03.399Z,7.18
2023-02-15T18:00:48.619Z,10.73
2023-02-15T18:03:33.953Z,7.60
2023-02-15T18:06:19.231Z,7.13
2023-02-15T18:09:05.734Z,8.95
2023-02-15T18:11:37.080Z,8.88
2023-02-15T18:14:04.900Z,7.20
2023-02-15T18:16:34.007Z,9.80
2023-02-15T18:19:01.699Z,7.95
2023-02-15T18:21:29.128Z,8.98
2023-02-15T18:23:57.866Z,8.40
2023-02-15T18:26:26.029Z,7.95
2023-02-15T18:28:53.415Z,9.25
2023-02-15T18:31:20.904Z,11.80
2023-02-15T18:33:49.014Z,8.55
2023-02-15T18:36:19.363Z,10.05
2023-02-15T18:38:47.080Z,8.88
2023-02-15T18:41:18.403Z,9.15
2023-02-15T18:43:45.852Z,10.35
2023-02-15T18:46:13.329Z,13.00
2023-02-15T18:48:40.776Z,10.07
2023-02-15T18:51:15.314Z,9.35
2023-02-15T18:53:42.686Z,11.00
2023-02-15T18:56:11.582Z,10.23
2023-02-15T18:58:42.273Z,10.70
2023-02-15T19:01:16.603Z,9.13
2023-02-15T19:03:46.186Z,9.02
2023-02-15T19:06:13.784Z,8.60
2023-02-15T19:08:41.189Z,9.40
2023-02-15T19:11:13.425Z,8.75
2023-02-15T19:13:42.141Z,9.68
2023-02-15T19:16:10.815Z,8.60
2023-02-15T19:18:38.220Z,9.93
2023-02-15T19:21:06.096Z,10.23
2023-02-15T19:23:33.538Z,9.25
2023-02-15T19:26:01.958Z,8.93
2023-02-15T19:28:32.197Z,9.57
2023-02-15T19:31:01.014Z,9.18
2023-02-15T19:33:28.551Z,7.32
2023-02-15T19:35:57.181Z,8.90
2023-02-15T19:38:25.914Z,8.80
2023-02-15T19:40:53.300Z,9.18
2023-02-15T19:43:26.068Z,8.20
2023-02-15T19:45:53.804Z,8.00
2023-02-15T19:48:22.548Z,9.18
2023-02-15T19:50:49.964Z,8.25
2023-02-15T19:53:24.019Z,9.05
2023-02-15T19:55:51.587Z,9.23
2023-02-15T19:58:19.947Z,8.48
2023-02-15T20:00:47.564Z,8.98
2023-02-15T20:03:15.335Z,8.38
2023-02-15T20:05:44.208Z,10.23
2023-02-15T20:08:15.459Z,9.88
2023-02-15T20:10:42.908Z,8.38
2023-02-15T20:13:12.299Z,7.75
2023-02-15T20:15:40.915Z,9.68
2023-02-15T20:18:08.377Z,8.18
2023-02-15T20:20:39.598Z,8.60
2023-02-15T20:23:15.388Z,8.80
2023-02-15T20:25:42.765Z,9.45
2023-02-15T20:28:11.178Z,10.60
2023-02-15T20:30:38.579Z,11.07
2023-02-15T20:33:06.048Z,10.68
2023-02-15T20:35:33.433Z,10.32
2023-02-15T20:38:02.568Z,9.48
2023-02-15T20:40:32.118Z,12.00
2023-02-15T20:42:59.513Z,10.88
2023-02-15T20:45:27.692Z,10.75
2023-02-15T20:47:55.273Z,9.60
2023-02-15T20:50:23.952Z,10.35
2023-02-15T20:52:52.187Z,9.80
2023-02-15T20:55:20.709Z,10.63
2023-02-15T20:57:49.473Z,10.32
2023-02-15T21:00:19.134Z,10.20
2023-02-15T21:02:47.743Z,10.95
2023-02-15T21:05:16.700Z,10.25
2023-02-15T21:07:44.133Z,9.10
2023-02-15T21:10:15.640Z,10.13
2023-02-15T21:12:43.060Z,9.70
2023-02-15T21:15:29.542Z,10.32
2023-02-15T21:17:58.043Z,10.55
2023-02-15T21:20:25.544Z,9.98
2023-02-15T21:22:53.077Z,9.57
2023-02-15T21:25:23.524Z,9.07
2023-02-15T21:27:51.607Z,8.93
2023-02-15T21:30:22.756Z,9.25
2023-02-15T21:32:51.478Z,9.00
2023-02-15T21:35:19.296Z,9.93
2023-02-15T21:37:47.368Z,9.55
2023-02-15T21:40:19.159Z,9.98
2023-02-15T21:43:04.374Z,9.85
2023-02-15T21:45:49.683Z,10.05
2023-02-15T21:48:18.430Z,10.68
2023-02-15T21:51:03.625Z,8.32
2023-02-15T21:53:32.450Z,9.43
2023-02-15T21:56:00.881Z,10.80
2023-02-15T21:58:28.975Z,10.30
2023-02-15T22:00:57.667Z,8.73
2023-02-15T22:03:27.531Z,9.90
2023-02-15T22:05:54.940Z,10.10
2023-02-15T22:08:22.337Z,8.93
2023-02-15T22:10:49.726Z,10.38
2023-02-15T22:13:18.221Z,9.70
2023-02-15T22:15:46.725Z,10.85
2023-02-15T22:18:20.470Z,10.10
2023-02-15T22:20:49.210Z,10.30
2023-02-15T22:23:16.621Z,9.38
2023-02-15T22:25:44.450Z,9.90
2023-02-15T22:28:16.616Z,12.52
2023-02-15T22:30:45.208Z,11.52
2023-02-15T22:33:22.276Z,10.52
2023-02-15T22:35:51.036Z,9.43
2023-02-15T22:38:18.517Z,10.45
2023-02-15T22:40:45.942Z,10.15
2023-02-15T22:43:20.792Z,9.57
2023-02-15T22:45:48.250Z,10.90
2023-02-15T22:48:16.066Z,9.30
2023-02-15T22:50:43.453Z,10.55
2023-02-15T22:53:12.151Z,9.57
2023-02-15T22:55:39.708Z,10.73
2023-02-15T22:58:07.110Z,9.65
2023-02-15T23:00:36.158Z,10.40
2023-02-15T23:03:10.799Z,10.48
2023-02-15T23:05:38.288Z,9.05
2023-02-15T23:08:05.909Z,9.48
2023-02-15T23:10:34.595Z,11.02
2023-02-15T23:13:19.756Z,11.25
2023-02-15T23:15:48.667Z,10.48
2023-02-15T23:18:18.073Z,10.05
2023-02-15T23:20:45.603Z,11.25
2023-02-15T23:23:13.424Z,9.23
2023-02-15T23:25:42.161Z,10.55
2023-02-15T23:28:26.590Z,9.18
2023-02-15T23:30:54.248Z,9.25
2023-02-15T23:33:22.249Z,10.18
2023-02-15T23:35:49.963Z,9.80
2023-02-15T23:38:25.240Z,10.15
2023-02-15T23:41:15.778Z,9.98
2023-02-15T23:43:44.505Z,10.98
2023-02-15T23:46:21.064Z,10.15
2023-02-15T23:48:48.541Z,9.68
2023-02-15T23:51:16.595Z,10.25
2023-02-15T23:53:44.017Z,9.13
2023-02-15T23:56:13.964Z,11.55
2023-02-15T23:58:42.514Z,10.02
